Time;durP1;ratioP1;P1;durP2;ratioP2;P2;SDS_P1;SDS_P2;PMS_P1;PMS_P2;Temp;Humidity;BMP_temperature;BMP_pressure;BME280_temperature;BME280_humidity;BME280_pressure;Samples;Min_cycle;Max_cycle;Signal;HPM_P1;HPM_P2
2022/09/05 00:02:33;;;;;;;3.10;2.70;;;18.00;99.90;;;;;;5001024;28;20230;-52
2022/09/05 00:05:23;;;;;;;4.37;2.90;;;18.00;99.90;;;;;;5003721;28;20246;-52
2022/09/05 00:08:01;;;;;;;4.77;2.67;;;18.00;99.90;;;;;;4983733;28;20229;-51
2022/09/05 00:10:39;;;;;;;4.10;2.83;;;18.00;99.90;;;;;;5001231;28;20243;-49
2022/09/05 00:13:32;;;;;;;4.37;2.73;;;17.90;99.90;;;;;;5002948;28;20227;-49
2022/09/05 00:16:20;;;;;;;4.77;2.67;;;17.90;99.90;;;;;;4999077;28;20223;-50
2022/09/05 00:18:58;;;;;;;4.13;2.60;;;17.90;99.90;;;;;;5000290;28;20716;-51
2022/09/05 00:22:02;;;;;;;4.50;2.80;;;17.90;99.90;;;;;;5003456;28;20309;-52
2022/09/05 00:25:06;;;;;;;3.90;2.60;;;18.00;99.90;;;;;;5001171;28;20244;-51
2022/09/05 00:28:02;;;;;;;3.00;2.70;;;17.90;99.90;;;;;;5002129;28;20228;-51
2022/09/05 00:31:07;;;;;;;3.43;2.67;;;17.80;99.90;;;;;;5002897;28;20260;-49
2022/09/05 00:34:05;;;;;;;4.87;2.70;;;17.90;99.90;;;;;;5003430;28;20229;-50
2022/09/05 00:36:42;;;;;;;4.07;2.63;;;17.90;99.90;;;;;;5001482;28;20241;-49
2022/09/05 00:39:16;;;;;;;2.93;2.63;;;17.80;99.90;;;;;;5001452;28;20702;-50
2022/09/05 00:41:48;;;;;;;3.70;2.80;;;17.80;99.90;;;;;;5003096;28;21639;-50
2022/09/05 00:44:18;;;;;;;4.30;2.60;;;17.90;99.90;;;;;;5001559;28;20239;-49
2022/09/05 00:46:54;;;;;;;4.80;2.90;;;17.80;99.90;;;;;;5000051;28;20229;-48
2022/09/05 00:49:29;;;;;;;4.37;2.90;;;17.80;99.90;;;;;;5000459;28;20226;-48
2022/09/05 00:52:04;;;;;;;3.70;2.77;;;17.80;99.90;;;;;;5001728;28;20267;-51
2022/09/05 00:54:55;;;;;;;3.07;2.63;;;17.80;99.90;;;;;;5002579;28;20234;-52
2022/09/05 00:57:46;;;;;;;3.07;2.70;;;17.80;99.90;;;;;;4999613;28;20230;-50
2022/09/05 01:00:17;;;;;;;3.83;2.70;;;17.80;99.90;;;;;;5000500;28;20694;-51
2022/09/05 01:03:08;;;;;;;4.50;3.10;;;17.80;99.90;;;;;;5002266;28;20324;-49
2022/09/05 01:05:52;;;;;;;4.90;2.97;;;17.80;99.90;;;;;;5001154;28;20326;-50
2022/09/05 01:08:42;;;;;;;4.63;2.57;;;17.80;99.90;;;;;;5000155;28;20698;-49
2022/09/05 01:11:15;;;;;;;3.50;2.80;;;17.70;99.90;;;;;;4990030;28;20243;-51
2022/09/05 01:13:48;;;;;;;3.27;2.70;;;17.70;99.90;;;;;;5000968;28;20239;-49
2022/09/05 01:16:23;;;;;;;3.90;2.60;;;17.70;99.90;;;;;;5000800;28;20236;-51
2022/09/05 01:19:04;;;;;;;3.33;2.53;;;17.70;99.90;;;;;;4999195;28;20847;-52
2022/09/05 01:21:57;;;;;;;3.73;2.70;;;17.60;99.90;;;;;;5000274;28;20287;-51
2022/09/05 01:24:53;;;;;;;2.90;2.60;;;17.70;99.90;;;;;;5001701;28;20720;-50
2022/09/05 01:27:52;;;;;;;4.80;3.50;;;17.60;99.90;;;;;;4996775;28;20229;-51
2022/09/05 01:30:46;;;;;;;4.23;2.60;;;17.60;99.90;;;;;;5004397;28;20241;-51
2022/09/05 01:33:26;;;;;;;3.77;2.60;;;17.60;99.90;;;;;;5013897;28;20774;-49
2022/09/05 01:36:28;;;;;;;2.73;2.30;;;17.60;99.90;;;;;;5019595;28;20229;-52
2022/09/05 01:39:03;;;;;;;3.93;2.60;;;17.60;99.90;;;;;;5006490;28;20246;-50
2022/09/05 01:41:57;;;;;;;3.27;2.43;;;17.70;99.90;;;;;;5013932;28;20244;-49
2022/09/05 01:44:49;;;;;;;3.60;2.77;;;17.60;99.90;;;;;;5017391;28;20239;-50
2022/09/05 01:47:34;;;;;;;3.50;2.40;;;17.70;99.90;;;;;;5016677;28;20376;-49
2022/09/05 01:50:15;;;;;;;3.53;2.50;;;17.60;99.90;;;;;;5014199;28;20230;-48
2022/09/05 01:53:24;;;;;;;4.27;2.50;;;17.60;99.90;;;;;;5018336;28;20238;-50
2022/09/05 01:56:22;;;;;;;3.87;2.80;;;17.60;99.90;;;;;;4965436;28;20230;-51
2022/09/05 01:59:02;;;;;;;3.73;2.80;;;17.60;99.90;;;;;;5012513;28;20239;-50
2022/09/05 02:01:40;;;;;;;3.63;2.83;;;17.60;99.90;;;;;;5010542;28;20763;-49
2022/09/05 02:04:43;;;;;;;2.60;2.40;;;17.60;99.90;;;;;;5004334;28;20224;-50
2022/09/05 02:07:24;;;;;;;4.40;2.70;;;17.60;99.90;;;;;;5004528;28;20702;-50
2022/09/05 02:10:18;;;;;;;4.67;3.13;;;17.60;99.90;;;;;;5001700;28;20221;-51
2022/09/05 02:12:49;;;;;;;4.07;2.63;;;17.60;99.90;;;;;;5000661;28;20242;-50
2022/09/05 02:15:39;;;;;;;3.37;3.00;;;17.50;99.90;;;;;;5003992;28;20238;-50
2022/09/05 02:18:18;;;;;;;3.77;2.60;;;17.60;99.90;;;;;;5000821;28;20242;-50
2022/09/05 02:20:51;;;;;;;3.37;2.70;;;17.50;99.90;;;;;;5003620;28;20746;-49
2022/09/05 02:23:31;;;;;;;5.50;3.10;;;17.50;99.90;;;;;;5001605;28;20244;-49
2022/09/05 02:26:17;;;;;;;4.47;3.30;;;17.50;99.90;;;;;;5003389;28;20724;-49
2022/09/05 02:28:54;;;;;;;3.00;2.70;;;17.50;99.90;;;;;;5002076;28;21609;-49
2022/09/05 02:31:32;;;;;;;4.30;2.80;;;17.40;99.90;;;;;;5002438;28;20238;-51
2022/09/05 02:34:10;;;;;;;5.90;3.00;;;17.40;99.90;;;;;;5001905;28;20233;-51
2022/09/05 02:36:44;;;;;;;3.47;2.93;;;17.40;99.90;;;;;;5002662;28;20369;-51
2022/09/05 02:39:19;;;;;;;4.00;2.80;;;17.30;99.90;;;;;;4999101;28;20482;-50
2022/09/05 02:42:18;;;;;;;3.87;2.70;;;17.40;99.90;;;;;;5000884;28;20246;-50
2022/09/05 02:45:15;;;;;;;4.27;2.87;;;17.40;99.90;;;;;;5002739;28;20264;-49
2022/09/05 02:48:08;;;;;;;4.27;2.77;;;17.30;99.90;;;;;;5001087;28;20572;-50
2022/09/05 02:51:09;;;;;;;3.17;2.67;;;17.30;99.90;;;;;;5001967;28;20725;-52
2022/09/05 02:54:02;;;;;;;4.00;2.70;;;17.30;99.90;;;;;;5001846;28;20226;-51
2022/09/05 02:57:14;;;;;;;4.17;2.73;;;17.30;99.90;;;;;;5001381;28;20229;-51
2022/09/05 03:00:09;;;;;;;3.90;3.27;;;17.30;99.90;;;;;;4998737;28;20673;-50
2022/09/05 03:02:55;;;;;;;3.47;3.00;;;17.30;99.90;;;;;;5000087;28;20605;-51
2022/09/05 03:05:28;;;;;;;3.83;3.00;;;17.20;99.90;;;;;;5003370;28;20245;-50
2022/09/05 03:08:24;;;;;;;4.17;2.87;;;17.30;99.90;;;;;;5001855;28;20248;-52
2022/09/05 03:11:14;;;;;;;3.17;2.87;;;17.30;99.90;;;;;;5000224;28;20845;-50
2022/09/05 03:14:11;;;;;;;3.37;2.93;;;17.30;99.90;;;;;;5000663;28;20282;-49
2022/09/05 03:17:17;;;;;;;4.17;3.20;;;17.30;99.90;;;;;;5000252;28;20706;-51
2022/09/05 03:20:18;;;;;;;7.07;3.33;;;17.30;99.90;;;;;;4965847;28;20277;-48
2022/09/05 03:23:17;;;;;;;4.10;2.80;;;17.20;99.90;;;;;;5000325;28;20746;-52
2022/09/05 03:26:13;;;;;;;3.13;2.80;;;17.20;99.90;;;;;;5001573;28;20225;-49
2022/09/05 03:29:24;;;;;;;4.53;3.40;;;17.20;99.90;;;;;;5000154;28;20298;-49
2022/09/05 03:32:24;;;;;;;3.57;3.03;;;17.10;99.90;;;;;;5000669;28;20246;-49
2022/09/05 03:35:15;;;;;;;4.23;3.20;;;17.20;99.90;;;;;;4999489;28;20333;-49
2022/09/05 03:38:06;;;;;;;5.17;3.40;;;17.10;99.90;;;;;;4999140;28;20778;-51
2022/09/05 03:41:00;;;;;;;10.23;3.70;;;17.10;99.90;;;;;;4999955;28;20235;-50
2022/09/05 03:43:53;;;;;;;5.30;3.47;;;17.10;99.90;;;;;;4996851;28;20281;-49
2022/09/05 03:46:34;;;;;;;4.77;3.57;;;17.10;99.90;;;;;;4998790;28;20237;-49
2022/09/05 03:49:20;;;;;;;5.17;3.50;;;17.10;99.90;;;;;;4997529;28;20314;-49
2022/09/05 03:52:20;;;;;;;5.70;3.33;;;17.10;99.90;;;;;;4999283;28;20223;-50
2022/09/05 03:55:54;;;;;;;4.63;3.17;;;17.10;99.90;;;;;;5000712;28;20229;-49
2022/09/05 03:59:07;;;;;;;4.53;3.17;;;17.00;99.90;;;;;;4934537;28;20236;-51
2022/09/05 04:01:41;;;;;;;3.30;3.00;;;16.90;99.90;;;;;;4998425;28;20727;-52
2022/09/05 04:04:33;;;;;;;4.10;3.17;;;17.00;99.90;;;;;;5000552;28;20225;-50
2022/09/05 04:07:26;;;;;;;3.93;2.97;;;17.00;99.90;;;;;;5001579;28;20222;-51
2022/09/05 04:10:26;;;;;;;3.73;3.30;;;16.90;99.90;;;;;;4997219;28;20237;-51
2022/09/05 04:13:01;;;;;;;3.47;2.80;;;16.90;99.90;;;;;;4999905;28;20269;-51
2022/09/05 04:15:36;;;;;;;3.87;3.20;;;16.90;99.90;;;;;;4999654;28;20239;-48
2022/09/05 04:18:21;;;;;;;4.57;3.43;;;16.90;99.90;;;;;;5000372;28;20740;-51
2022/09/05 04:21:06;;;;;;;4.70;2.90;;;16.90;99.90;;;;;;5000997;28;20238;-49
2022/09/05 04:23:46;;;;;;;3.67;3.23;;;16.90;99.90;;;;;;5000520;28;20245;-49
2022/09/05 04:26:30;;;;;;;4.53;3.37;;;16.80;99.90;;;;;;5000202;28;20234;-49
2022/09/05 04:29:08;;;;;;;3.43;3.13;;;16.90;99.90;;;;;;4998047;28;20249;-50
2022/09/05 04:31:47;;;;;;;3.47;3.17;;;16.90;99.90;;;;;;4999679;28;20247;-51
2022/09/05 04:34:39;;;;;;;5.27;3.43;;;16.90;99.90;;;;;;5000983;28;20234;-49
2022/09/05 04:37:09;;;;;;;4.07;3.30;;;16.90;99.90;;;;;;4998573;28;20585;-51
2022/09/05 04:39:37;;;;;;;5.60;3.70;;;16.90;99.90;;;;;;4996541;28;20690;-51
2022/09/05 04:42:19;;;;;;;3.70;3.03;;;16.90;99.90;;;;;;4998448;28;20317;-51
2022/09/05 04:44:54;;;;;;;5.30;3.23;;;16.80;99.90;;;;;;4999397;28;20811;-52
2022/09/05 04:47:28;;;;;;;3.80;3.40;;;16.80;99.90;;;;;;4998182;28;20232;-49
2022/09/05 04:50:01;;;;;;;4.23;3.30;;;16.80;99.90;;;;;;4995831;28;20230;-49
2022/09/05 04:52:54;;;;;;;3.57;3.27;;;16.80;99.90;;;;;;4999843;28;20610;-49
2022/09/05 04:55:25;;;;;;;6.23;3.53;;;16.80;99.90;;;;;;5000183;28;20236;-52
2022/09/05 04:57:58;;;;;;;5.10;3.33;;;16.80;99.90;;;;;;4998592;28;20231;-49
2022/09/05 05:00:34;;;;;;;3.73;3.40;;;16.80;99.90;;;;;;4997538;28;20225;-50
2022/09/05 05:03:27;;;;;;;5.57;3.80;;;16.80;99.90;;;;;;5003416;28;20229;-53
2022/09/05 05:06:24;;;;;;;4.57;3.60;;;16.80;99.90;;;;;;5003931;28;20739;-51
2022/09/05 05:09:17;;;;;;;4.03;3.30;;;16.90;99.90;;;;;;5001115;28;20225;-48
2022/09/05 05:11:51;;;;;;;3.47;3.10;;;16.90;99.90;;;;;;5003278;28;20228;-49
2022/09/05 05:14:46;;;;;;;6.53;3.60;;;16.90;99.90;;;;;;5003632;28;20681;-49
2022/09/05 05:17:39;;;;;;;5.67;3.80;;;16.90;99.90;;;;;;5003630;28;20268;-48
2022/09/05 05:20:31;;;;;;;3.80;3.37;;;17.00;99.90;;;;;;5002704;28;20724;-51
2022/09/05 05:23:14;;;;;;;5.33;3.40;;;17.10;99.90;;;;;;5003170;28;20309;-50
2022/09/05 05:25:49;;;;;;;4.20;3.57;;;17.10;99.90;;;;;;5002985;28;21430;-48
2022/09/05 05:28:26;;;;;;;6.90;3.70;;;17.10;99.90;;;;;;5003708;28;20293;-51
2022/09/05 05:30:56;;;;;;;4.87;3.33;;;17.20;99.90;;;;;;5001345;28;20236;-49
2022/09/05 05:33:34;;;;;;;6.57;3.67;;;17.30;99.90;;;;;;5004107;28;20225;-51
2022/09/05 05:36:06;;;;;;;4.53;3.27;;;17.30;99.90;;;;;;5002528;28;20316;-48
2022/09/05 05:38:42;;;;;;;4.10;3.53;;;17.30;99.90;;;;;;5002247;28;20233;-48
2022/09/05 05:41:18;;;;;;;7.23;3.77;;;17.40;99.90;;;;;;5003513;28;20595;-49
2022/09/05 05:43:48;;;;;;;6.50;3.80;;;17.40;99.90;;;;;;5004603;28;20268;-49
2022/09/05 05:46:30;;;;;;;6.30;3.93;;;17.50;99.90;;;;;;5004632;28;20233;-51
2022/09/05 05:49:26;;;;;;;5.20;3.30;;;17.50;99.90;;;;;;5003368;28;20218;-52
2022/09/05 05:52:06;;;;;;;4.73;3.70;;;17.50;99.90;;;;;;5003182;28;20891;-51
2022/09/05 05:54:42;;;;;;;6.50;3.50;;;17.50;99.90;;;;;;5002891;28;20259;-50
2022/09/05 05:57:31;;;;;;;4.00;3.47;;;17.60;99.90;;;;;;5001522;28;20337;-51
2022/09/05 06:00:17;;;;;;;4.97;3.20;;;17.60;99.90;;;;;;5002227;28;20264;-51
2022/09/05 06:03:33;;;;;;;4.33;3.33;;;17.70;99.90;;;;;;4988469;28;20229;-50
2022/09/05 06:06:22;;;;;;;5.50;3.53;;;17.80;99.90;;;;;;4983838;28;20233;-49
2022/09/05 06:09:48;;;;;;;4.80;3.33;;;17.80;99.90;;;;;;4988136;28;20571;-49
2022/09/05 06:13:18;;;;;;;3.93;3.40;;;17.80;99.90;;;;;;4987259;28;20235;-52
2022/09/05 06:16:36;;;;;;;3.97;3.47;;;17.90;99.90;;;;;;4986979;28;20218;-51
2022/09/05 06:19:49;;;;;;;5.50;3.47;;;18.00;99.90;;;;;;4987762;28;20349;-50
2022/09/05 06:23:16;;;;;;;4.10;3.67;;;18.10;99.90;;;;;;4974415;28;20265;-52
2022/09/05 06:26:21;;;;;;;4.83;3.83;;;18.10;99.90;;;;;;4987725;28;20235;-50
2022/09/05 06:29:00;;;;;;;7.33;3.60;;;18.00;99.90;;;;;;4988123;28;20238;-49
2022/09/05 06:31:43;;;;;;;6.07;3.57;;;18.00;99.90;;;;;;4988657;28;20737;-50
2022/09/05 06:34:32;;;;;;;7.03;3.87;;;18.00;99.90;;;;;;4988272;28;20228;-52
2022/09/05 06:37:13;;;;;;;4.70;3.50;;;18.00;99.90;;;;;;4987906;28;20238;-49
2022/09/05 06:40:02;;;;;;;5.33;3.37;;;18.00;99.90;;;;;;4987415;28;20261;-49
2022/09/05 06:42:43;;;;;;;6.53;3.60;;;18.10;99.90;;;;;;4988239;28;20833;-50
2022/09/05 06:45:44;;;;;;;5.57;3.60;;;18.00;99.90;;;;;;4985875;28;20235;-49
2022/09/05 06:48:20;;;;;;;4.07;3.60;;;18.00;99.90;;;;;;4984796;28;20266;-50
2022/09/05 06:51:49;;;;;;;6.93;3.83;;;18.10;99.90;;;;;;4981759;28;20223;-49
2022/09/05 06:55:29;;;;;;;4.70;3.90;;;18.10;99.90;;;;;;4980563;28;20230;-52
2022/09/05 06:58:41;;;;;;;5.03;3.77;;;18.20;99.90;;;;;;4967869;28;20243;-51
2022/09/05 07:01:11;;;;;;;8.33;3.93;;;18.20;99.90;;;;;;4972616;28;20238;-48
2022/09/05 07:03:56;;;;;;;6.67;4.07;;;18.30;99.90;;;;;;4981867;28;20228;-50
2022/09/05 07:07:01;;;;;;;4.33;3.47;;;18.40;99.90;;;;;;4984168;28;20239;-50
2022/09/05 07:09:47;;;;;;;4.37;3.40;;;18.50;99.90;;;;;;4985850;28;20231;-49
2022/09/05 07:12:21;;;;;;;4.40;3.77;;;18.60;99.90;;;;;;4986498;28;20301;-49
2022/09/05 07:14:59;;;;;;;4.30;3.43;;;18.60;99.90;;;;;;4984610;28;20708;-50
2022/09/05 07:17:53;;;;;;;4.27;3.70;;;18.70;99.90;;;;;;4986099;28;20232;-49
2022/09/05 07:20:45;;;;;;;3.73;3.40;;;18.80;99.90;;;;;;4984315;28;20246;-52
2022/09/05 07:23:50;;;;;;;4.83;3.67;;;18.90;99.90;;;;;;4984414;28;20585;-49
2022/09/05 07:26:40;;;;;;;6.13;4.20;;;18.90;99.90;;;;;;4984385;28;20784;-51
2022/09/05 07:29:25;;;;;;;4.53;3.80;;;19.00;99.90;;;;;;4986190;28;20283;-49
2022/09/05 07:31:58;;;;;;;5.67;3.83;;;19.00;99.90;;;;;;5002323;28;20326;-52
2022/09/05 07:34:30;;;;;;;4.23;3.83;;;19.10;99.90;;;;;;5007600;28;20251;-49
2022/09/05 07:37:03;;;;;;;4.40;3.60;;;19.10;99.90;;;;;;5008896;28;20241;-51
2022/09/05 07:39:51;;;;;;;6.10;3.73;;;19.10;99.90;;;;;;5008229;28;20252;-49
2022/09/05 07:42:25;;;;;;;5.40;3.77;;;19.20;99.90;;;;;;5008091;28;20300;-51
2022/09/05 07:44:56;;;;;;;5.97;4.37;;;19.20;99.90;;;;;;5011364;28;20696;-49
2022/09/05 07:47:30;;;;;;;6.57;3.87;;;19.30;99.90;;;;;;5016502;28;20691;-52
2022/09/05 07:50:03;;;;;;;4.90;4.07;;;19.40;99.90;;;;;;5014210;28;20228;-49
2022/09/05 07:52:54;;;;;;;6.73;4.00;;;19.50;99.90;;;;;;5016088;28;20236;-51
2022/09/05 07:55:43;;;;;;;4.60;3.77;;;19.70;99.90;;;;;;5013247;28;20232;-51
2022/09/05 07:58:40;;;;;;;6.23;3.90;;;20.10;99.90;;;;;;5017188;28;20737;-51
2022/09/05 08:01:11;;;;;;;5.30;3.87;;;20.20;99.90;;;;;;5009285;28;20236;-52
2022/09/05 08:03:43;;;;;;;5.20;3.60;;;20.30;99.90;;;;;;4998263;28;20241;-52
2022/09/05 08:06:16;;;;;;;4.53;3.70;;;20.40;99.90;;;;;;4994446;28;20591;-50
2022/09/05 08:09:07;;;;;;;4.13;3.70;;;20.50;99.90;;;;;;4994043;28;20709;-52
2022/09/05 08:11:59;;;;;;;9.10;3.90;;;20.50;99.90;;;;;;4996139;28;20243;-51
2022/09/05 08:14:58;;;;;;;7.40;4.10;;;20.50;99.90;;;;;;4998101;28;20717;-52
2022/09/05 08:17:27;;;;;;;5.37;3.63;;;20.50;99.90;;;;;;4995181;28;20236;-51
2022/09/05 08:20:27;;;;;;;4.40;3.70;;;20.60;99.90;;;;;;4993516;28;20244;-50
2022/09/05 08:23:07;;;;;;;5.33;3.83;;;20.70;99.90;;;;;;4994729;28;20307;-50
2022/09/05 08:25:40;;;;;;;4.03;3.50;;;20.70;99.90;;;;;;4993224;28;20229;-51
2022/09/05 08:28:31;;;;;;;4.43;4.03;;;20.70;99.90;;;;;;4994265;28;20288;-50
2022/09/05 08:31:11;;;;;;;5.50;4.00;;;20.60;99.90;;;;;;4998484;28;20237;-50
2022/09/05 08:33:41;;;;;;;4.37;3.60;;;20.70;99.90;;;;;;5000097;28;20752;-51
2022/09/05 08:36:23;;;;;;;4.30;3.90;;;20.80;99.90;;;;;;5000928;28;20228;-50
2022/09/05 08:38:53;;;;;;;4.20;3.80;;;20.80;99.90;;;;;;5001165;28;20232;-50
2022/09/05 08:41:27;;;;;;;5.23;4.13;;;20.90;99.90;;;;;;5005038;28;20799;-50
2022/09/05 08:44:20;;;;;;;4.90;3.53;;;20.90;99.90;;;;;;5001780;28;20573;-52
2022/09/05 08:47:18;;;;;;;4.50;4.10;;;21.10;99.90;;;;;;4999918;28;20218;-52
2022/09/05 08:50:05;;;;;;;5.37;3.93;;;21.30;99.90;;;;;;4996891;28;20323;-50
2022/09/05 08:52:49;;;;;;;6.07;3.53;;;21.40;99.90;;;;;;5001809;28;20232;-51
2022/09/05 08:55:30;;;;;;;7.30;4.20;;;21.60;99.90;;;;;;5004754;28;20323;-50
2022/09/05 08:58:05;;;;;;;5.57;3.87;;;22.10;99.90;;;;;;5003315;28;20704;-53
2022/09/05 09:00:40;;;;;;;6.40;3.67;;;22.50;99.90;;;;;;4999507;28;20709;-53
2022/09/05 09:03:21;;;;;;;4.93;3.70;;;22.50;99.90;;;;;;5001483;28;20228;-50
2022/09/05 09:06:24;;;;;;;5.17;3.73;;;22.50;99.90;;;;;;5002020;28;20236;-51
2022/09/05 09:09:12;;;;;;;5.57;3.97;;;22.50;99.90;;;;;;4977314;28;20316;-52
2022/09/05 09:11:48;;;;;;;4.20;3.70;;;22.50;99.90;;;;;;4998247;28;20715;-52
2022/09/05 09:14:42;;;;;;;6.10;3.60;;;22.50;99.90;;;;;;4999411;28;20779;-52
2022/09/05 09:17:23;;;;;;;3.87;3.47;;;22.50;99.90;;;;;;5002265;28;20242;-52
2022/09/05 09:20:03;;;;;;;6.17;3.80;;;22.40;99.90;;;;;;4997962;28;20238;-54
2022/09/05 09:22:41;;;;;;;7.80;3.67;;;22.50;99.90;;;;;;5004921;28;20241;-50
2022/09/05 09:25:15;;;;;;;4.00;3.60;;;22.50;99.90;;;;;;5003040;28;20233;-49
2022/09/05 09:28:15;;;;;;;3.97;3.13;;;22.30;99.90;;;;;;5001914;28;20233;-52
2022/09/05 09:31:11;;;;;;;3.97;3.20;;;22.50;99.90;;;;;;5003212;28;20244;-52
2022/09/05 09:33:44;;;;;;;4.93;3.27;;;22.70;99.90;;;;;;5002614;28;20331;-52
2022/09/05 09:36:32;;;;;;;4.87;3.30;;;22.70;99.90;;;;;;5001920;28;20301;-52
2022/09/05 09:39:13;;;;;;;4.53;3.23;;;22.80;99.90;;;;;;4997725;28;20227;-50
2022/09/05 09:42:30;;;;;;;5.90;3.17;;;22.90;99.90;;;;;;5001901;28;20731;-49
2022/09/05 09:45:20;;;;;;;3.57;3.27;;;22.80;99.90;;;;;;4997386;28;20316;-51
2022/09/05 09:48:20;;;;;;;4.23;3.53;;;22.70;99.90;;;;;;5001836;28;20237;-49
2022/09/05 09:51:18;;;;;;;6.23;3.50;;;22.60;99.90;;;;;;4999417;28;20229;-51
2022/09/05 09:54:11;;;;;;;6.27;3.00;;;22.70;99.90;;;;;;4999195;28;20336;-49
2022/09/05 09:57:24;;;;;;;4.40;3.10;;;22.60;99.90;;;;;;5000138;28;20316;-52
2022/09/05 10:00:10;;;;;;;5.67;3.27;;;22.80;99.90;;;;;;4998131;28;20236;-51
2022/09/05 10:03:01;;;;;;;3.90;3.40;;;23.00;99.90;;;;;;5000029;28;20249;-52
2022/09/05 10:06:19;;;;;;;6.00;3.17;;;23.30;99.90;;;;;;5000781;28;20228;-49
2022/09/05 10:09:21;;;;;;;5.07;3.10;;;24.00;99.90;;;;;;4996794;28;20233;-51
2022/09/05 10:12:48;;;;;;;4.17;3.37;;;24.50;99.90;;;;;;4993086;28;20230;-52
2022/09/05 10:15:46;;;;;;;5.73;3.20;;;24.70;99.90;;;;;;4995099;28;21246;-52
2022/09/05 10:18:42;;;;;;;5.87;3.50;;;24.80;99.90;;;;;;4994762;28;20316;-50
2022/09/05 10:21:36;;;;;;;3.80;3.40;;;24.60;99.90;;;;;;4997327;28;21153;-50
2022/09/05 10:24:34;;;;;;;6.67;3.40;;;24.60;99.90;;;;;;4995810;28;20233;-53
2022/09/05 10:27:13;;;;;;;4.00;3.33;;;24.80;99.90;;;;;;4996553;28;20732;-50
2022/09/05 10:29:47;;;;;;;4.40;4.00;;;25.20;99.90;;;;;;4996212;28;20232;-52
2022/09/05 10:32:23;;;;;;;4.93;3.40;;;25.40;99.90;;;;;;4996909;28;20815;-50
2022/09/05 10:35:23;;;;;;;5.70;4.03;;;25.60;99.90;;;;;;4994697;28;20698;-52
2022/09/05 10:37:58;;;;;;;5.27;3.30;;;25.90;99.90;;;;;;4995403;28;20576;-52
2022/09/05 10:40:29;;;;;;;3.97;3.57;;;26.20;99.90;;;;;;4995321;28;20231;-52
2022/09/05 10:43:20;;;;;;;4.33;3.80;;;26.20;99.90;;;;;;4996534;28;20288;-51
2022/09/05 10:45:59;;;;;;;5.70;3.87;;;26.30;99.90;;;;;;4996021;28;21072;-52
2022/09/05 10:48:36;;;;;;;4.07;3.70;;;26.40;99.90;;;;;;4994288;28;20235;-51
2022/09/05 10:51:15;;;;;;;5.00;4.00;;;26.20;99.90;;;;;;4995699;28;20235;-53
2022/09/05 10:54:10;;;;;;;6.87;3.93;;;26.10;99.90;;;;;;4995782;28;21242;-51
2022/09/05 10:56:43;;;;;;;4.33;3.93;;;26.20;99.90;;;;;;4995828;28;20786;-51
2022/09/05 10:59:22;;;;;;;8.03;3.80;;;26.40;99.90;;;;;;4995988;28;20235;-53
2022/09/05 11:02:19;;;;;;;5.13;3.83;;;26.50;99.90;;;;;;4995324;28;20844;-53
2022/09/05 11:05:12;;;;;;;7.13;4.10;;;26.40;99.90;;;;;;4995996;28;20235;-52
2022/09/05 11:07:47;;;;;;;5.53;3.83;;;26.60;99.90;;;;;;4996452;28;20711;-53
2022/09/05 11:10:19;;;;;;;4.30;3.90;;;26.50;99.90;;;;;;4994130;28;20228;-51
2022/09/05 11:13:16;;;;;;;5.13;3.93;;;26.70;99.90;;;;;;4994185;28;20901;-53
2022/09/05 11:16:02;;;;;;;5.87;4.00;;;26.60;99.90;;;;;;4995130;28;20770;-52
2022/09/05 11:19:00;;;;;;;4.57;3.70;;;26.50;99.90;;;;;;4995021;28;20225;-51
2022/09/05 11:21:50;;;;;;;5.27;4.23;;;26.50;99.90;;;;;;4988721;28;20236;-54
2022/09/05 11:24:46;;;;;;;3.93;3.63;;;26.70;99.90;;;;;;4995062;28;20608;-52
2022/09/05 11:27:26;;;;;;;5.40;4.13;;;26.50;99.90;;;;;;4997011;28;20239;-49
2022/09/05 11:29:58;;;;;;;4.50;4.10;;;26.30;99.90;;;;;;4995091;28;20232;-53
2022/09/05 11:32:58;;;;;;;7.23;4.30;;;26.50;99.90;;;;;;4991586;28;20245;-53
2022/09/05 11:35:53;;;;;;;5.87;4.50;;;26.50;99.90;;;;;;4992606;28;20631;-53
2022/09/05 11:39:00;;;;;;;4.47;4.07;;;26.40;99.90;;;;;;4992009;28;20240;-52
2022/09/05 11:42:32;;;;;;;5.27;4.00;;;26.50;99.90;;;;;;4991662;28;20853;-53
2022/09/05 11:45:25;;;;;;;6.80;4.03;;;26.80;99.90;;;;;;4923391;29;20231;-53
2022/09/05 11:48:25;;;;;;;4.10;3.70;;;26.80;99.90;;;;;;4950181;28;20234;-53
2022/09/05 11:51:26;;;;;;;4.57;3.90;;;26.80;99.90;;;;;;4990732;28;20336;-52
2022/09/05 11:54:26;;;;;;;4.10;3.70;;;26.40;99.90;;;;;;4990787;28;20623;-52
2022/09/05 11:57:23;;;;;;;4.37;3.40;;;26.50;99.90;;;;;;4992742;28;20573;-52
2022/09/05 12:00:09;;;;;;;4.97;3.60;;;26.50;99.90;;;;;;4991505;28;20237;-54
2022/09/05 12:03:27;;;;;;;7.30;3.47;;;26.30;99.90;;;;;;5011443;28;20230;-53
2022/09/05 12:06:48;;;;;;;5.23;3.87;;;26.20;99.90;;;;;;5009958;28;20234;-53
2022/09/05 12:09:29;;;;;;;5.70;3.37;;;26.00;99.90;;;;;;4996147;28;20739;-54
2022/09/05 12:12:13;;;;;;;4.73;3.37;;;25.90;99.90;;;;;;5013642;28;20325;-50
2022/09/05 12:15:23;;;;;;;6.13;3.43;;;25.50;99.90;;;;;;5011580;28;20219;-50
2022/09/05 12:18:09;;;;;;;3.73;3.43;;;25.70;99.90;;;;;;5012371;28;20235;-49
2022/09/05 12:20:54;;;;;;;4.73;3.10;;;25.60;99.90;;;;;;5010790;28;20325;-49
2022/09/05 12:23:32;;;;;;;6.07;3.10;;;25.90;99.90;;;;;;5010063;28;20232;-49
2022/09/05 12:26:25;;;;;;;8.00;3.50;;;26.20;99.90;;;;;;5011142;28;20224;-50
2022/09/05 12:29:18;;;;;;;6.07;3.20;;;26.50;99.90;;;;;;5008711;28;20228;-50
2022/09/05 12:32:04;;;;;;;5.40;2.90;;;26.70;99.90;;;;;;4999592;28;20240;-51
2022/09/05 12:34:54;;;;;;;4.87;3.17;;;26.70;99.90;;;;;;4997638;28;20625;-50
2022/09/05 12:37:50;;;;;;;4.30;3.07;;;26.40;99.90;;;;;;5001070;28;20234;-50
2022/09/05 12:40:51;;;;;;;4.60;3.17;;;26.30;99.90;;;;;;5000282;28;20723;-51
2022/09/05 12:43:44;;;;;;;4.83;3.13;;;26.30;99.90;;;;;;4999200;28;20609;-51
2022/09/05 12:46:37;;;;;;;5.07;3.43;;;26.10;99.90;;;;;;5000123;28;20230;-50
2022/09/05 12:49:11;;;;;;;5.77;3.27;;;26.20;99.90;;;;;;4999339;28;20610;-49
2022/09/05 12:51:46;;;;;;;6.10;3.10;;;26.10;99.90;;;;;;4999111;28;20241;-51
2022/09/05 12:54:27;;;;;;;8.77;3.43;;;25.90;99.90;;;;;;5001819;28;20679;-51
2022/09/05 12:57:09;;;;;;;6.30;3.40;;;26.00;99.90;;;;;;4999812;28;20234;-51
2022/09/05 12:59:59;;;;;;;5.73;3.50;;;26.10;99.90;;;;;;4998859;28;20912;-50
2022/09/05 13:02:52;;;;;;;5.70;3.20;;;25.90;99.90;;;;;;4998963;28;20259;-51
2022/09/05 13:06:02;;;;;;;6.17;3.30;;;26.10;99.90;;;;;;4997632;28;20236;-51
2022/09/05 13:08:46;;;;;;;6.67;3.67;;;26.20;99.90;;;;;;4998366;28;20228;-51
2022/09/05 13:11:29;;;;;;;3.77;3.20;;;26.30;99.90;;;;;;5001291;28;20804;-51
2022/09/05 13:14:23;;;;;;;4.17;3.00;;;26.20;99.90;;;;;;5000475;28;20258;-50
2022/09/05 13:17:13;;;;;;;7.43;3.37;;;25.90;99.90;;;;;;5000105;28;20696;-50
2022/09/05 13:19:49;;;;;;;4.23;3.23;;;26.00;99.90;;;;;;4998915;28;20245;-50
2022/09/05 13:22:21;;;;;;;5.97;3.13;;;26.10;99.90;;;;;;5000572;28;20240;-50
2022/09/05 13:24:58;;;;;;;4.23;2.90;;;25.90;99.90;;;;;;5003183;28;20607;-49
2022/09/05 13:27:30;;;;;;;3.60;3.30;;;25.90;99.90;;;;;;5002647;28;20235;-50
2022/09/05 13:30:06;;;;;;;4.37;3.23;;;25.80;99.90;;;;;;4999020;28;20306;-49
2022/09/05 13:32:59;;;;;;;5.70;3.50;;;25.40;99.90;;;;;;5014344;28;21675;-51
2022/09/05 13:36:02;;;;;;;4.50;3.50;;;25.70;99.90;;;;;;5018618;28;20227;-51
2022/09/05 13:39:00;;;;;;;6.37;3.07;;;25.70;99.90;;;;;;5009349;28;20704;-52
2022/09/05 13:41:34;;;;;;;4.90;3.57;;;25.80;99.90;;;;;;5012783;28;20664;-52
2022/09/05 13:44:09;;;;;;;5.93;5.33;;;25.60;99.90;;;;;;5013114;28;20239;-52
2022/09/05 13:47:01;;;;;;;3.60;3.30;;;25.70;99.90;;;;;;5016564;28;20230;-49
2022/09/05 13:49:43;;;;;;;4.40;3.10;;;25.50;99.90;;;;;;5017236;28;20241;-51
2022/09/05 13:52:27;;;;;;;3.80;3.10;;;25.40;99.90;;;;;;5016775;28;20245;-51
2022/09/05 13:55:08;;;;;;;4.67;2.90;;;25.50;99.90;;;;;;5009663;28;20235;-51
2022/09/05 13:57:41;;;;;;;3.27;2.80;;;25.50;99.90;;;;;;5007915;28;20314;-51
2022/09/05 14:00:52;;;;;;;4.20;2.87;;;25.60;99.90;;;;;;5009346;28;20625;-49
2022/09/05 14:04:04;;;;;;;5.27;3.00;;;25.40;99.90;;;;;;5010975;28;20330;-52
2022/09/05 14:06:57;;;;;;;3.10;2.80;;;25.60;99.90;;;;;;4997925;28;20232;-52
2022/09/05 14:10:01;;;;;;;3.90;3.20;;;25.70;99.90;;;;;;5004322;28;20743;-52
2022/09/05 14:12:38;;;;;;;6.67;5.57;;;25.70;99.90;;;;;;5007010;28;20219;-50
2022/09/05 14:15:29;;;;;;;5.07;3.17;;;25.60;99.90;;;;;;5011061;28;20598;-53
2022/09/05 14:18:03;;;;;;;4.20;3.13;;;25.40;99.90;;;;;;5012661;28;20239;-52
2022/09/05 14:23:52;;;;;;;5.47;3.20;;;25.40;99.90;;;;;;5012752;28;20254;-53
2022/09/05 14:26:27;;;;;;;4.97;2.60;;;25.30;99.90;;;;;;5011729;28;21734;-53
2022/09/05 14:29:04;;;;;;;4.00;2.93;;;25.40;99.90;;;;;;5011449;28;20231;-54
2022/09/05 14:31:51;;;;;;;4.03;2.83;;;25.40;99.90;;;;;;5009361;28;20748;-54
2022/09/05 14:34:53;;;;;;;5.13;3.30;;;25.40;99.90;;;;;;5009546;28;20232;-53
2022/09/05 14:37:54;;;;;;;3.97;2.87;;;25.40;99.90;;;;;;5013674;28;20753;-54
2022/09/05 14:41:20;;;;;;;7.23;2.83;;;25.30;99.90;;;;;;5012854;28;20231;-54